Terminal Aerodrome Forecast
Issued by NWS

Home | Current Version | Previous Version | Text Only | Print | Product List | Glossary On
Versions: 1 2 3 4 5 6 7 8 9 10 11 12 13 14 15 16 17 18 19 20 21 22 23 24
000
FTUS43 KEAX 191400 AAA
TAFMKC
TAF AMD
KMKC 191425Z 1914/2012 17006KT 5SM BR OVC006
     FM191600 17007KT P6SM OVC008
     FM191700 18008KT P6SM BKN012
     FM191900 18010KT P6SM BKN025
     FM192100 18010KT P6SM SCT025=

USA.gov is the U.S. government's official web portal to all federal, state and local government web resources and services.